createdAt,value
2017-03-21T00:00:55.842Z,39.82
2017-03-21T00:02:05.451Z,39.72
2017-03-21T00:03:15.055Z,39.74
2017-03-21T00:04:24.982Z,39.72
2017-03-21T00:05:34.924Z,39.72
2017-03-21T00:06:45.193Z,39.72
2017-03-21T00:07:54.806Z,39.82
2017-03-21T00:09:04.732Z,39.72
2017-03-21T00:10:14.346Z,39.74
2017-03-21T00:11:23.944Z,39.74
2017-03-21T00:12:34.156Z,39.72
2017-03-21T00:13:43.760Z,39.74
2017-03-21T00:14:53.976Z,39.72
2017-03-21T00:16:04.195Z,39.72
2017-03-21T00:17:13.794Z,39.91
2017-03-21T00:18:23.695Z,39.91
2017-03-21T00:19:33.915Z,39.72
2017-03-21T00:20:43.552Z,39.91
2017-03-21T00:21:53.761Z,40.01
2017-03-21T00:23:03.676Z,39.74
2017-03-21T00:24:13.541Z,39.91
2017-03-21T00:25:23.139Z,40.01
2017-03-21T00:26:32.737Z,39.91
2017-03-21T00:27:42.371Z,39.91
2017-03-21T00:28:51.972Z,39.82
2017-03-21T00:30:01.749Z,39.91
2017-03-21T00:31:11.065Z,39.91
2017-03-21T00:32:20.978Z,40.01
2017-03-21T00:33:31.199Z,39.82
2017-03-21T00:34:40.823Z,39.82
2017-03-21T00:35:50.591Z,40.01
2017-03-21T00:36:59.917Z,39.72
2017-03-21T00:38:10.142Z,39.72
2017-03-21T00:39:20.367Z,40.11
2017-03-21T00:40:30.282Z,39.82
2017-03-21T00:41:40.050Z,40.01
2017-03-21T00:42:49.968Z,39.91
2017-03-21T00:43:59.589Z,39.91
2017-03-21T00:45:09.208Z,39.82
2017-03-21T00:46:19.114Z,39.62
2017-03-21T00:47:29.071Z,39.91
2017-03-21T00:48:38.376Z,39.91
2017-03-21T00:49:48.290Z,39.72
2017-03-21T00:50:58.216Z,40.01
2017-03-21T00:52:08.439Z,40.03
2017-03-21T00:53:18.913Z,40.12
2017-03-21T00:54:28.823Z,40.01
2017-03-21T00:55:38.755Z,40.12
2017-03-21T00:56:48.377Z,40.01
2017-03-21T00:57:57.678Z,40.49
2017-03-21T00:59:08.193Z,40.59
2017-03-21T01:00:18.418Z,40.49
2017-03-21T01:01:28.318Z,40.49
2017-03-21T01:02:38.224Z,40.59
2017-03-21T01:03:48.176Z,40.59
2017-03-21T01:04:58.241Z,40.49
2017-03-21T01:06:08.488Z,40.2
2017-03-21T01:07:18.697Z,40.49
2017-03-21T01:08:28.599Z,40.49
2017-03-21T01:09:38.542Z,40.39
2017-03-21T01:10:48.403Z,40.51
2017-03-21T01:11:58.308Z,40.49
2017-03-21T01:13:08.206Z,40.59
2017-03-21T01:14:18.438Z,40.59
2017-03-21T01:15:28.658Z,40.49
2017-03-21T01:16:38.703Z,40.59
2017-03-21T01:17:48.925Z,40.3
2017-03-21T01:18:58.829Z,40.59
2017-03-21T01:20:08.748Z,40.39
2017-03-21T01:21:18.960Z,40.59
2017-03-21T01:22:28.569Z,40.49
2017-03-21T01:23:38.473Z,40.39
2017-03-21T01:24:48.084Z,40.49
2017-03-21T01:25:58.320Z,40.3
2017-03-21T01:27:07.925Z,40.49
2017-03-21T01:28:19.006Z,40.39
2017-03-21T01:29:28.927Z,40.39
2017-03-21T01:30:38.840Z,40.3
2017-03-21T01:31:48.433Z,40.49
2017-03-21T01:32:58.348Z,40.3
2017-03-21T01:34:08.420Z,40.39
2017-03-21T01:35:18.061Z,40.3
2017-03-21T01:36:28.327Z,40.3
2017-03-21T01:37:38.270Z,40.39
2017-03-21T01:38:47.587Z,40.3
2017-03-21T01:39:57.685Z,40.39
2017-03-21T01:41:07.295Z,40.39
2017-03-21T01:42:17.222Z,40.39
2017-03-21T01:43:27.153Z,40.3
2017-03-21T01:44:36.776Z,40.39
2017-03-21T01:45:47.294Z,40.39
2017-03-21T01:46:57.524Z,40.2
2017-03-21T01:48:07.442Z,40.3
2017-03-21T01:49:17.691Z,40.3
2017-03-21T01:50:27.315Z,40.39
2017-03-21T01:51:36.877Z,40.32
2017-03-21T01:52:47.127Z,40.3
2017-03-21T01:53:57.067Z,40.3
2017-03-21T01:55:06.990Z,40.39
2017-03-21T01:56:16.912Z,40.39
2017-03-21T01:57:27.199Z,40.3
2017-03-21T01:58:37.441Z,40.3
2017-03-21T01:59:47.364Z,40.39
2017-03-21T02:00:57.603Z,40.39
2017-03-21T02:02:07.550Z,40.3
2017-03-21T02:03:17.811Z,40.3
2017-03-21T02:04:27.739Z,40.39
2017-03-21T02:05:37.699Z,40.39
2017-03-21T02:06:47.022Z,40.3
2017-03-21T02:07:56.976Z,40.39
2017-03-21T02:09:07.178Z,40.49
2017-03-21T02:10:17.120Z,40.39
2017-03-21T02:11:27.041Z,40.3
2017-03-21T02:12:36.953Z,40.3
2017-03-21T02:13:47.188Z,40.3
2017-03-21T02:14:57.489Z,40.39
2017-03-21T02:16:07.455Z,40.2
2017-03-21T02:17:17.708Z,40.39
2017-03-21T02:18:27.621Z,40.39
2017-03-21T02:19:37.873Z,40.3
2017-03-21T02:20:47.550Z,40.3
2017-03-21T02:21:57.775Z,40.39
2017-03-21T02:23:07.703Z,40.39
2017-03-21T02:24:17.958Z,40.39
2017-03-21T02:25:28.190Z,40.3
2017-03-21T02:26:38.047Z,40.39
2017-03-21T02:27:47.690Z,40.2
2017-03-21T02:28:57.617Z,40.2
2017-03-21T02:30:07.275Z,40.39
2017-03-21T02:31:17.202Z,40.39
2017-03-21T02:32:27.234Z,40.39
2017-03-21T02:33:37.963Z,40.3
2017-03-21T02:34:47.304Z,40.3
2017-03-21T02:35:56.931Z,40.3
2017-03-21T02:37:06.864Z,40.39
2017-03-21T02:38:17.497Z,40.3
2017-03-21T02:39:27.753Z,40.39
2017-03-21T02:40:37.728Z,40.3
2017-03-21T02:41:47.652Z,40.39
2017-03-21T02:42:57.884Z,40.39
2017-03-21T02:44:08.210Z,40.39
2017-03-21T02:45:17.516Z,40.3
2017-03-21T02:46:27.740Z,40.39
2017-03-21T02:47:37.357Z,40.39
2017-03-21T02:48:47.344Z,40.39
2017-03-21T02:49:57.529Z,40.39
2017-03-21T02:51:07.764Z,40.39
2017-03-21T02:52:17.392Z,40.3
2017-03-21T02:53:27.363Z,40.39
2017-03-21T02:54:37.633Z,40.39
2017-03-21T02:55:47.825Z,40.3
2017-03-21T02:56:58.050Z,40.3
2017-03-21T02:58:07.999Z,40.3
2017-03-21T02:59:17.919Z,40.39
2017-03-21T03:00:27.551Z,40.3
2017-03-21T03:01:37.529Z,40.2
2017-03-21T03:02:47.141Z,40.3
2017-03-21T03:03:57.371Z,40.2
2017-03-21T03:05:07.303Z,40.2
2017-03-21T03:06:17.552Z,40.39
2017-03-21T03:07:28.047Z,40.3
2017-03-21T03:08:37.966Z,40.78
2017-03-21T03:09:47.568Z,40.3
2017-03-21T03:10:57.187Z,40.3
2017-03-21T03:12:07.153Z,40.2
2017-03-21T03:13:17.685Z,40.3
2017-03-21T03:14:27.299Z,40.78
2017-03-21T03:15:37.264Z,40.3
2017-03-21T03:16:47.511Z,40.3
2017-03-21T03:17:57.719Z,40.3
2017-03-21T03:19:07.511Z,40.2
2017-03-21T03:20:17.740Z,40.3
2017-03-21T03:21:27.360Z,40.3
2017-03-21T03:22:37.611Z,40.2
2017-03-21T03:23:47.849Z,40.3
2017-03-21T03:24:58.058Z,40.2
2017-03-21T03:26:07.956Z,40.59
2017-03-21T03:27:17.561Z,40.2
2017-03-21T03:28:27.791Z,40.59
2017-03-21T03:29:38.021Z,40.2
2017-03-21T03:30:47.979Z,40.2
2017-03-21T03:31:58.185Z,40.2
2017-03-21T03:33:08.416Z,40.2
2017-03-21T03:34:18.371Z,40.2
2017-03-21T03:35:28.594Z,40.78
2017-03-21T03:36:38.746Z,40.39
2017-03-21T03:37:48.662Z,40.2
2017-03-21T03:38:58.578Z,40.39
2017-03-21T03:40:08.547Z,40.11
2017-03-21T03:41:18.750Z,40.69
2017-03-21T03:42:28.799Z,40.39
2017-03-21T03:43:39.035Z,40.3
2017-03-21T03:44:48.953Z,40.3
2017-03-21T03:45:58.867Z,40.69
2017-03-21T03:47:08.493Z,40.69
2017-03-21T03:48:18.956Z,40.69
2017-03-21T03:49:28.865Z,40.69
2017-03-21T03:50:38.467Z,40.69
2017-03-21T03:51:48.675Z,40.39
2017-03-21T03:52:58.595Z,40.3
2017-03-21T03:54:08.809Z,40.78
2017-03-21T03:55:19.027Z,40.69
2017-03-21T03:56:28.640Z,40.59
2017-03-21T03:57:37.975Z,40.69
2017-03-21T03:58:48.202Z,40.69
2017-03-21T03:59:58.277Z,40.69
2017-03-21T04:01:07.889Z,40.78
2017-03-21T04:02:17.484Z,40.69
2017-03-21T04:03:26.786Z,40.78
2017-03-21T04:04:36.392Z,40.69
2017-03-21T04:05:47.001Z,40.69
2017-03-21T04:06:57.234Z,40.69
2017-03-21T04:08:07.169Z,40.69
2017-03-21T04:09:17.120Z,40.69
2017-03-21T04:10:27.349Z,40.69
2017-03-21T04:11:37.719Z,40.69
2017-03-21T04:12:47.646Z,40.69
2017-03-21T04:13:57.259Z,40.69
2017-03-21T04:15:07.200Z,40.69
2017-03-21T04:16:17.119Z,40.69
2017-03-21T04:17:27.182Z,40.69
2017-03-21T04:18:37.416Z,40.69
2017-03-21T04:19:47.331Z,40.69
2017-03-21T04:20:57.245Z,40.69
2017-03-21T04:22:07.151Z,40.78
2017-03-21T04:23:17.477Z,40.78
2017-03-21T04:24:27.423Z,40.78
2017-03-21T04:25:36.414Z,40.78
2017-03-21T04:26:46.019Z,40.78
2017-03-21T04:27:56.234Z,40.78
2017-03-21T04:29:06.706Z,40.69
2017-03-21T04:30:16.316Z,40.69
2017-03-21T04:31:26.214Z,40.69
2017-03-21T04:32:35.818Z,40.69
2017-03-21T04:33:45.741Z,40.78
2017-03-21T04:34:56.351Z,40.78
2017-03-21T04:36:06.566Z,40.78
2017-03-21T04:37:16.163Z,40.69
2017-03-21T04:38:25.779Z,40.59
2017-03-21T04:39:36.029Z,40.49
2017-03-21T04:40:46.039Z,40.49
2017-03-21T04:41:55.335Z,40.59
2017-03-21T04:43:04.930Z,40.49
2017-03-21T04:44:14.537Z,40.49
2017-03-21T04:45:24.754Z,40.49
2017-03-21T04:46:34.957Z,40.49
2017-03-21T04:47:45.179Z,40.49
2017-03-21T04:48:55.110Z,40.49
2017-03-21T04:50:05.013Z,40.59
2017-03-21T04:51:14.924Z,40.59
2017-03-21T04:52:25.308Z,40.59
2017-03-21T04:53:35.221Z,40.49
2017-03-21T04:54:44.836Z,40.59
2017-03-21T04:55:55.056Z,40.49
2017-03-21T04:57:04.962Z,40.49
2017-03-21T04:58:15.018Z,40.59
2017-03-21T04:59:24.636Z,40.59
2017-03-21T05:00:34.248Z,40.49
2017-03-21T05:01:43.840Z,40.69
2017-03-21T05:02:53.448Z,40.69
2017-03-21T05:04:04.019Z,40.49
2017-03-21T05:05:13.930Z,40.59
2017-03-21T05:06:23.829Z,40.49
2017-03-21T05:07:34.036Z,40.49
2017-03-21T05:08:43.952Z,40.49
2017-03-21T05:09:54.136Z,40.59
2017-03-21T05:11:04.363Z,40.59
2017-03-21T05:12:14.260Z,40.69
2017-03-21T05:13:23.857Z,40.59
2017-03-21T05:14:33.467Z,40.59
2017-03-21T05:15:43.780Z,40.49
2017-03-21T05:16:53.399Z,40.49
2017-03-21T05:18:03.329Z,40.59
2017-03-21T05:19:13.575Z,40.69
2017-03-21T05:20:23.487Z,40.49
2017-03-21T05:21:33.243Z,40.49
2017-03-21T05:22:43.180Z,40.59
2017-03-21T05:23:52.792Z,40.69
2017-03-21T05:25:02.751Z,40.59
2017-03-21T05:26:12.663Z,40.59
2017-03-21T05:27:23.506Z,40.59
2017-03-21T05:28:33.435Z,40.59
2017-03-21T05:29:43.788Z,40.59
2017-03-21T05:30:53.417Z,40.78
2017-03-21T05:32:03.357Z,40.78
2017-03-21T05:33:12.840Z,40.78
2017-03-21T05:34:22.762Z,40.69
2017-03-21T05:35:32.688Z,40.59
2017-03-21T05:36:43.282Z,40.59
2017-03-21T05:37:53.193Z,40.59
2017-03-21T05:39:03.601Z,40.49
2017-03-21T05:40:13.815Z,40.59
2017-03-21T05:41:24.025Z,40.39
2017-03-21T05:42:33.626Z,40.3
2017-03-21T05:43:43.875Z,40.3
2017-03-21T05:44:54.118Z,40.3
2017-03-21T05:46:04.034Z,40.49
2017-03-21T05:47:13.650Z,40.11
2017-03-21T05:48:23.641Z,40.03
2017-03-21T05:49:33.274Z,40.03
2017-03-21T05:50:43.602Z,39.64
2017-03-21T05:51:53.213Z,39.54
2017-03-21T05:53:02.505Z,39.45
2017-03-21T05:54:11.845Z,39.54
2017-03-21T05:55:21.778Z,39.64
2017-03-21T05:56:31.536Z,39.54
2017-03-21T05:57:41.436Z,39.06
2017-03-21T05:58:51.671Z,39.28
2017-03-21T06:00:01.907Z,39.37
2017-03-21T06:01:11.810Z,39.37
2017-03-21T06:02:21.846Z,38.89
2017-03-21T06:03:32.109Z,38.79
2017-03-21T06:04:42.341Z,38.79
2017-03-21T06:05:52.569Z,38.6
2017-03-21T06:07:02.504Z,38.51
2017-03-21T06:08:12.971Z,38.31
2017-03-21T06:09:22.882Z,38.21
2017-03-21T06:10:32.799Z,38.53
2017-03-21T06:11:42.718Z,38.33
2017-03-21T06:12:52.633Z,38.23
2017-03-21T06:14:02.946Z,38.23
2017-03-21T06:15:12.893Z,38.33
2017-03-21T06:16:22.865Z,38.43
2017-03-21T06:17:32.766Z,38.53
2017-03-21T06:18:42.692Z,38.43
2017-03-21T06:19:53.062Z,38.62
2017-03-21T06:21:02.975Z,38.53
2017-03-21T06:22:12.893Z,38.43
2017-03-21T06:23:22.496Z,38.53
2017-03-21T06:24:32.409Z,38.23
2017-03-21T06:25:42.986Z,38.14
2017-03-21T06:26:52.590Z,38.06
2017-03-21T06:28:02.806Z,38.04
2017-03-21T06:29:12.719Z,37.77
2017-03-21T06:30:22.647Z,37.87
2017-03-21T06:31:33.283Z,37.77
2017-03-21T06:32:42.893Z,37.87
2017-03-21T06:33:52.810Z,37.96
2017-03-21T06:35:03.031Z,37.87
2017-03-21T06:36:12.958Z,37.67
2017-03-21T06:37:23.325Z,37.77
2017-03-21T06:38:33.555Z,37.87
2017-03-21T06:39:43.170Z,37.88
2017-03-21T06:40:53.378Z,37.98
2017-03-21T06:42:03.284Z,37.79
2017-03-21T06:43:13.465Z,37.79
2017-03-21T06:44:23.378Z,37.88
2017-03-21T06:45:32.991Z,37.79
2017-03-21T06:46:42.623Z,37.7
2017-03-21T06:47:51.926Z,37.7
2017-03-21T06:49:01.987Z,37.6
2017-03-21T06:50:11.582Z,37.7
2017-03-21T06:51:21.488Z,37.7
2017-03-21T06:52:31.089Z,37.7
2017-03-21T06:53:41.060Z,37.4
2017-03-21T06:54:51.246Z,37.79
2017-03-21T06:56:00.843Z,37.88
2017-03-21T06:57:10.753Z,37.79
2017-03-21T06:58:20.356Z,37.79
2017-03-21T06:59:30.273Z,37.88
2017-03-21T07:00:40.837Z,37.79
2017-03-21T07:01:50.738Z,37.88
2017-03-21T07:03:00.667Z,37.79
2017-03-21T07:04:10.282Z,37.88
2017-03-21T07:05:20.186Z,37.88
2017-03-21T07:06:29.891Z,37.88
2017-03-21T07:07:39.809Z,37.88
2017-03-21T07:08:49.737Z,37.88
2017-03-21T07:09:59.648Z,37.98
2017-03-21T07:11:09.873Z,37.79
2017-03-21T07:12:19.825Z,37.88
2017-03-21T07:13:29.740Z,37.98
2017-03-21T07:14:39.690Z,37.88
2017-03-21T07:15:49.899Z,38.18
2017-03-21T07:17:00.105Z,38.08
2017-03-21T07:18:10.152Z,38.18
2017-03-21T07:19:20.057Z,38.28
2017-03-21T07:20:29.992Z,38.18
2017-03-21T07:21:39.290Z,38.28
2017-03-21T07:22:49.238Z,38.37
2017-03-21T07:23:59.559Z,38.37
2017-03-21T07:25:09.828Z,38.46
2017-03-21T07:26:19.747Z,38.56
2017-03-21T07:27:29.391Z,38.46
2017-03-21T07:28:39.011Z,38.66
2017-03-21T07:29:49.275Z,38.56
2017-03-21T07:30:59.237Z,38.37
2017-03-21T07:32:08.829Z,38.56
2017-03-21T07:33:18.766Z,38.46
2017-03-21T07:34:28.693Z,38.35
2017-03-21T07:35:38.867Z,38.46
2017-03-21T07:36:48.776Z,38.28
2017-03-21T07:37:58.736Z,38.46
2017-03-21T07:39:08.984Z,38.46
2017-03-21T07:40:19.203Z,38.37
2017-03-21T07:41:29.546Z,38.54
2017-03-21T07:42:39.152Z,38.54
2017-03-21T07:43:48.766Z,38.83
2017-03-21T07:44:58.381Z,38.66
2017-03-21T07:46:07.989Z,38.54
2017-03-21T07:47:18.149Z,38.46
2017-03-21T07:48:28.363Z,38.64
2017-03-21T07:49:38.584Z,38.54
2017-03-21T07:50:48.512Z,38.83
2017-03-21T07:51:58.745Z,38.83
2017-03-21T07:53:09.221Z,38.66
2017-03-21T07:54:19.139Z,38.64
2017-03-21T07:55:29.059Z,38.83
2017-03-21T07:56:39.270Z,38.93
2017-03-21T07:57:49.508Z,38.93
2017-03-21T07:58:59.574Z,39.03
2017-03-21T08:00:09.794Z,39.03
2017-03-21T08:01:19.409Z,39.32
2017-03-21T08:02:29.630Z,39.32
2017-03-21T08:03:39.856Z,39.51
2017-03-21T08:04:49.632Z,39.32
2017-03-21T08:05:59.246Z,39.22
2017-03-21T08:07:09.154Z,38.93
2017-03-21T08:08:18.764Z,39.32
2017-03-21T08:09:28.977Z,39.12
2017-03-21T08:10:38.881Z,39.03
2017-03-21T08:11:48.800Z,38.93
2017-03-21T08:12:58.400Z,38.93
2017-03-21T08:14:08.007Z,38.93
2017-03-21T08:15:17.910Z,38.93
2017-03-21T08:16:28.000Z,39.12
2017-03-21T08:17:37.650Z,38.93
2017-03-21T08:18:47.874Z,38.93
2017-03-21T08:19:57.809Z,39.12
2017-03-21T08:21:07.422Z,39.12
2017-03-21T08:22:17.752Z,39.12
2017-03-21T08:23:27.995Z,39.22
2017-03-21T08:24:37.920Z,39.61
2017-03-21T08:25:48.151Z,39.61
2017-03-21T08:26:58.107Z,39.61
2017-03-21T08:28:08.114Z,39.51
2017-03-21T08:29:18.424Z,39.61
2017-03-21T08:30:28.323Z,39.61
2017-03-21T08:31:38.247Z,39.41
2017-03-21T08:32:47.869Z,39.61
2017-03-21T08:33:58.387Z,39.29
2017-03-21T08:35:08.610Z,39.49
2017-03-21T08:36:18.521Z,39.59
2017-03-21T08:37:28.750Z,39.69
2017-03-21T08:38:38.962Z,39.78
2017-03-21T08:39:49.533Z,39.87
2017-03-21T08:40:59.437Z,39.78
2017-03-21T08:42:09.650Z,39.69
2017-03-21T08:43:19.573Z,39.87
2017-03-21T08:44:29.816Z,40.07
2017-03-21T08:45:39.583Z,39.87
2017-03-21T08:46:49.807Z,39.78
2017-03-21T08:48:00.021Z,39.87
2017-03-21T08:49:09.635Z,39.87
2017-03-21T08:50:19.240Z,40.07
2017-03-21T08:51:29.146Z,40.17
2017-03-21T08:52:39.044Z,40.07
2017-03-21T08:53:48.344Z,39.97
2017-03-21T08:54:58.247Z,39.78
2017-03-21T08:56:08.159Z,39.69
2017-03-21T08:57:18.518Z,40.07
2017-03-21T08:58:28.135Z,40.07
2017-03-21T08:59:37.764Z,39.97
2017-03-21T09:00:48.007Z,39.97
2017-03-21T09:01:58.236Z,39.97
2017-03-21T09:03:08.251Z,40.07
2017-03-21T09:04:17.595Z,39.78
2017-03-21T09:05:27.812Z,39.97
2017-03-21T09:06:37.723Z,39.78
2017-03-21T09:07:47.340Z,39.87
2017-03-21T09:08:57.514Z,40.07
2017-03-21T09:10:07.471Z,39.97
2017-03-21T09:11:17.393Z,40.07
2017-03-21T09:12:27.317Z,39.78
2017-03-21T09:13:37.237Z,39.97
2017-03-21T09:14:47.607Z,40.07
2017-03-21T09:15:57.823Z,40.55
2017-03-21T09:17:07.733Z,40.65
2017-03-21T09:18:17.634Z,40.65
2017-03-21T09:19:27.926Z,40.36
2017-03-21T09:20:37.782Z,40.36
2017-03-21T09:21:47.696Z,40.45
2017-03-21T09:22:57.622Z,40.45
2017-03-21T09:24:07.843Z,40.45
2017-03-21T09:25:17.761Z,40.36
2017-03-21T09:26:28.718Z,40.36
2017-03-21T09:27:38.631Z,40.36
2017-03-21T09:28:48.540Z,40.36
2017-03-21T09:29:58.753Z,40.36
2017-03-21T09:31:08.980Z,40.44
2017-03-21T09:32:19.044Z,40.44
2017-03-21T09:33:28.950Z,40.53
2017-03-21T09:34:38.566Z,40.45
2017-03-21T09:35:48.785Z,40.65
2017-03-21T09:36:58.713Z,40.55
2017-03-21T09:38:08.775Z,40.07
2017-03-21T09:39:17.765Z,39.97
2017-03-21T09:40:27.683Z,40.07
2017-03-21T09:41:37.598Z,39.78
2017-03-21T09:42:47.496Z,40.07
2017-03-21T09:43:57.503Z,39.69
2017-03-21T09:45:06.800Z,39.97
2017-03-21T09:46:16.743Z,39.97
2017-03-21T09:47:26.677Z,39.69
2017-03-21T09:48:36.274Z,39.78
2017-03-21T09:49:46.741Z,39.97
2017-03-21T09:50:56.657Z,39.69
2017-03-21T09:52:06.871Z,39.59
2017-03-21T09:53:17.093Z,39.29
2017-03-21T09:54:26.697Z,39.59
2017-03-21T09:55:37.262Z,39.49
2017-03-21T09:56:47.482Z,39.59
2017-03-21T09:57:57.701Z,39.39
2017-03-21T09:59:07.624Z,39.59
2017-03-21T10:00:17.234Z,39.32
2017-03-21T10:01:27.096Z,39.69
2017-03-21T10:02:37.339Z,39.01
2017-03-21T10:03:47.351Z,38.93
2017-03-21T10:04:57.269Z,39.01
2017-03-21T10:06:07.488Z,39.03
2017-03-21T10:07:17.717Z,39.2
2017-03-21T10:08:27.973Z,38.91
2017-03-21T10:09:38.216Z,39.59
2017-03-21T10:10:48.125Z,39.59
2017-03-21T10:11:58.035Z,39.03
2017-03-21T10:13:08.578Z,39.2
2017-03-21T10:14:18.202Z,39.61
2017-03-21T10:15:28.413Z,39.49
2017-03-21T10:16:37.719Z,39.51
2017-03-21T10:17:46.705Z,39.51
2017-03-21T10:18:56.101Z,39.59
2017-03-21T10:20:06.001Z,39.29
2017-03-21T10:21:15.609Z,39.49
2017-03-21T10:22:25.219Z,39.2
2017-03-21T10:23:35.442Z,39.29
2017-03-21T10:24:45.701Z,39.2
2017-03-21T10:25:55.620Z,39.39
2017-03-21T10:27:05.232Z,39.29
2017-03-21T10:28:15.149Z,39.29
2017-03-21T10:29:24.749Z,39.29
2017-03-21T10:30:35.017Z,39.29
2017-03-21T10:31:44.931Z,39.49
2017-03-21T10:32:54.864Z,39.49
2017-03-21T10:34:05.105Z,39.39
2017-03-21T10:35:15.357Z,39.2
2017-03-21T10:36:25.431Z,39.69
2017-03-21T10:37:35.038Z,39.69
2017-03-21T10:38:44.351Z,39.78
2017-03-21T10:39:54.270Z,39.59
2017-03-21T10:41:04.182Z,39.59
2017-03-21T10:42:14.342Z,39.69
2017-03-21T10:43:24.247Z,39.69
2017-03-21T10:44:34.149Z,39.78
2017-03-21T10:45:44.063Z,39.78
2017-03-21T10:46:53.665Z,39.78
2017-03-21T10:48:03.005Z,39.78
2017-03-21T10:49:12.911Z,39.97
2017-03-21T10:50:22.828Z,39.97
2017-03-21T10:51:32.454Z,39.78
2017-03-21T10:52:42.672Z,40.17
2017-03-21T10:53:53.246Z,39.78
2017-03-21T10:55:03.460Z,40.07
2017-03-21T10:56:13.356Z,40.07
2017-03-21T10:57:23.258Z,39.69
2017-03-21T10:58:32.869Z,40.07
2017-03-21T10:59:42.461Z,39.69
2017-03-21T11:00:52.696Z,39.97
2017-03-21T11:02:02.621Z,39.87
2017-03-21T11:03:12.538Z,39.97
2017-03-21T11:04:22.142Z,39.87
2017-03-21T11:05:32.728Z,40.07
2017-03-21T11:06:42.332Z,39.97
2017-03-21T11:07:51.950Z,39.87
2017-03-21T11:09:01.869Z,39.78
2017-03-21T11:10:11.178Z,40.07
2017-03-21T11:11:21.180Z,39.87
2017-03-21T11:12:31.077Z,40.07
2017-03-21T11:13:40.978Z,40.17
2017-03-21T11:14:51.197Z,40.07
2017-03-21T11:16:01.155Z,39.78
2017-03-21T11:17:11.446Z,39.97
2017-03-21T11:18:21.372Z,39.95
2017-03-21T11:19:31.592Z,39.97
2017-03-21T11:20:41.510Z,40.07
2017-03-21T11:21:50.819Z,39.86
2017-03-21T11:23:01.130Z,39.87
2017-03-21T11:24:11.081Z,39.97
2017-03-21T11:25:21.321Z,40.07
2017-03-21T11:26:31.541Z,39.76
2017-03-21T11:27:41.450Z,40.17
2017-03-21T11:28:51.705Z,39.76
2017-03-21T11:30:01.912Z,39.78
2017-03-21T11:31:12.158Z,39.78
2017-03-21T11:32:22.080Z,39.97
2017-03-21T11:33:31.378Z,39.87
2017-03-21T11:34:41.740Z,39.87
2017-03-21T11:35:51.962Z,39.49
2017-03-21T11:37:01.877Z,39.69
2017-03-21T11:38:11.198Z,39.59
2017-03-21T11:39:20.804Z,39.59
2017-03-21T11:40:30.963Z,39.59
2017-03-21T11:41:40.883Z,39.29
2017-03-21T11:42:50.798Z,39.49
2017-03-21T11:44:01.043Z,39.2
2017-03-21T11:45:10.944Z,39.39
2017-03-21T11:46:21.309Z,39.39
2017-03-21T11:47:31.222Z,39.39
2017-03-21T11:48:40.828Z,39.2
2017-03-21T11:49:50.751Z,39.2
2017-03-21T11:51:00.981Z,39.29
2017-03-21T11:52:10.695Z,39.49
2017-03-21T11:53:20.917Z,39.59
2017-03-21T11:54:30.871Z,39.59
2017-03-21T11:55:40.588Z,39.39
2017-03-21T11:56:50.220Z,39.69
2017-03-21T11:58:00.307Z,39.97
2017-03-21T11:59:10.561Z,39.87
2017-03-21T12:00:20.156Z,39.87
2017-03-21T12:01:30.060Z,39.78
2017-03-21T12:02:40.283Z,39.87
2017-03-21T12:03:50.754Z,39.76
2017-03-21T12:05:00.669Z,39.78
2017-03-21T12:06:10.895Z,39.78
2017-03-21T12:07:20.816Z,39.66
2017-03-21T12:08:30.434Z,39.95
2017-03-21T12:09:40.448Z,39.95
2017-03-21T12:10:49.766Z,39.76
2017-03-21T12:11:59.369Z,39.95
2017-03-21T12:13:09.273Z,40.63
2017-03-21T12:14:19.495Z,40.53
2017-03-21T12:15:28.740Z,40.63
2017-03-21T12:16:38.640Z,40.44
2017-03-21T12:17:48.864Z,40.44
2017-03-21T12:18:59.089Z,40.44
2017-03-21T12:20:09.004Z,40.34
2017-03-21T12:21:19.183Z,40.44
2017-03-21T12:22:29.087Z,40.34
2017-03-21T12:23:39.000Z,40.34
2017-03-21T12:24:48.908Z,40.44
2017-03-21T12:25:58.209Z,40.44
2017-03-21T12:27:08.181Z,40.34
2017-03-21T12:28:18.095Z,40.44
2017-03-21T12:29:27.718Z,40.44
2017-03-21T12:30:37.641Z,40.34
2017-03-21T12:31:47.562Z,40.34
2017-03-21T12:32:58.131Z,40.34
2017-03-21T12:34:08.039Z,40.63
2017-03-21T12:35:17.961Z,40.44
2017-03-21T12:36:27.607Z,40.15
2017-03-21T12:37:37.525Z,40.05
2017-03-21T12:38:47.386Z,39.95
2017-03-21T12:39:56.698Z,40.05
2017-03-21T12:41:06.938Z,39.95
2017-03-21T12:42:16.540Z,39.95
2017-03-21T12:43:26.458Z,40.15
2017-03-21T12:44:36.357Z,39.76
2017-03-21T12:45:46.261Z,39.76
2017-03-21T12:46:55.551Z,39.76
2017-03-21T12:48:05.501Z,39.86
2017-03-21T12:49:15.129Z,39.86
2017-03-21T12:50:24.583Z,39.57
2017-03-21T12:51:34.504Z,39.66
2017-03-21T12:52:44.468Z,39.66
2017-03-21T12:53:53.790Z,39.57
2017-03-21T12:55:04.038Z,39.37
2017-03-21T12:56:14.627Z,39.28
2017-03-21T12:57:23.983Z,39.57
2017-03-21T12:58:33.927Z,39.28
2017-03-21T12:59:43.234Z,39.37
2017-03-21T13:00:53.169Z,39.57
2017-03-21T13:02:03.756Z,39.49
2017-03-21T13:03:13.682Z,39.57
2017-03-21T13:04:24.045Z,39.39
2017-03-21T13:05:33.993Z,39.59
2017-03-21T13:06:44.204Z,39.69
2017-03-21T13:07:54.389Z,39.47
2017-03-21T13:09:04.342Z,39.2
2017-03-21T13:10:14.294Z,39.76
2017-03-21T13:11:24.223Z,39.57
2017-03-21T13:12:34.453Z,39.49
2017-03-21T13:13:44.628Z,39.39
2017-03-21T13:14:54.549Z,39.57
2017-03-21T13:16:04.804Z,39.57
2017-03-21T13:17:13.814Z,39.37
2017-03-21T13:18:24.029Z,39.18
2017-03-21T13:19:33.933Z,39.28
2017-03-21T13:20:43.524Z,39.47
2017-03-21T13:21:53.163Z,39.47
2017-03-21T13:23:03.098Z,39.28
2017-03-21T13:24:12.740Z,39.28
2017-03-21T13:25:22.596Z,39.47
2017-03-21T13:26:32.852Z,39.37
2017-03-21T13:27:42.468Z,39.47
2017-03-21T13:28:52.382Z,39.47
2017-03-21T13:30:02.068Z,39.37
2017-03-21T13:31:13.049Z,39.57
2017-03-21T13:32:22.995Z,39.47
2017-03-21T13:33:32.315Z,39.29
2017-03-21T13:34:41.922Z,39.18
2017-03-21T13:35:52.164Z,38.99
2017-03-21T13:37:02.245Z,38.91
2017-03-21T13:38:12.173Z,39.11
2017-03-21T13:39:22.423Z,39.11
2017-03-21T13:40:31.148Z,38.89
2017-03-21T13:41:40.534Z,38.91
2017-03-21T13:42:51.021Z,39.09
2017-03-21T13:44:00.938Z,38.89
2017-03-21T13:45:10.282Z,38.99
2017-03-21T13:46:20.508Z,38.89
2017-03-21T13:47:30.427Z,38.91
2017-03-21T13:48:40.607Z,39.01
2017-03-21T13:49:50.560Z,39.09
2017-03-21T13:51:00.211Z,38.99
2017-03-21T13:52:10.137Z,38.89
2017-03-21T13:53:20.110Z,39.2
2017-03-21T13:54:29.903Z,39.28
2017-03-21T13:55:39.849Z,39.01
2017-03-21T13:56:49.791Z,39.29
2017-03-21T13:57:59.731Z,39.09
2017-03-21T13:59:08.774Z,39.01
2017-03-21T14:00:19.065Z,39.28
2017-03-21T14:01:29.038Z,39.09
2017-03-21T14:02:38.976Z,38.89
2017-03-21T14:03:48.911Z,39.01
2017-03-21T14:04:58.534Z,38.89
2017-03-21T14:06:08.884Z,38.99
2017-03-21T14:07:19.140Z,38.99
2017-03-21T14:08:28.745Z,39.18
2017-03-21T14:09:38.692Z,39.01
2017-03-21T14:10:48.370Z,39.18
2017-03-21T14:11:58.410Z,38.99
2017-03-21T14:13:07.733Z,39.29
2017-03-21T14:14:17.432Z,38.99
2017-03-21T14:15:27.380Z,39.28
2017-03-21T14:16:36.993Z,39.28
2017-03-21T14:17:46.101Z,39.37
2017-03-21T14:18:56.331Z,39.29
2017-03-21T14:20:05.956Z,39.29
2017-03-21T14:21:16.183Z,39.18
2017-03-21T14:22:26.436Z,39.18
2017-03-21T14:23:37.008Z,39.18
2017-03-21T14:24:46.910Z,39.09
2017-03-21T14:25:57.116Z,38.89
2017-03-21T14:27:07.331Z,39.09
2017-03-21T14:28:16.925Z,39.37
2017-03-21T14:29:27.082Z,38.89
2017-03-21T14:30:36.692Z,38.89
2017-03-21T14:31:46.914Z,39.37
2017-03-21T14:32:56.236Z,39.09
2017-03-21T14:34:06.151Z,39.28
2017-03-21T14:35:16.529Z,39.37
2017-03-21T14:36:26.740Z,39.18
2017-03-21T14:37:36.031Z,38.99
2017-03-21T14:38:45.647Z,39.18
2017-03-21T14:39:55.554Z,38.89
2017-03-21T14:41:05.719Z,38.89
2017-03-21T14:42:15.322Z,39.18
2017-03-21T14:43:24.938Z,39.28
2017-03-21T14:44:34.222Z,39.28
2017-03-21T14:45:43.828Z,39.28
2017-03-21T14:46:53.254Z,39.37
2017-03-21T14:48:03.495Z,39.47
2017-03-21T14:49:13.430Z,39.37
2017-03-21T14:50:23.360Z,39.37
2017-03-21T14:51:33.578Z,39.37
2017-03-21T14:52:44.049Z,39.28
2017-03-21T14:53:53.656Z,39.47
2017-03-21T14:55:03.592Z,39.37
2017-03-21T14:56:13.540Z,39.47
2017-03-21T14:57:23.764Z,39.37
2017-03-21T14:58:33.837Z,39.37
2017-03-21T14:59:43.762Z,39.47
2017-03-21T15:00:53.361Z,39.47
2017-03-21T15:02:03.576Z,39.47
2017-03-21T15:03:13.482Z,39.57
2017-03-21T15:04:23.739Z,39.37